createdAt,value
2019-03-30T00:01:50.809Z,11.30
2019-03-30T00:04:22.375Z,11.28
2019-03-30T00:06:53.902Z,11.28
2019-03-30T00:09:25.393Z,11.27
2019-03-30T00:11:57.987Z,11.22
2019-03-30T00:14:30.729Z,11.15
2019-03-30T00:17:02.249Z,11.13
2019-03-30T00:19:35.020Z,11.08
2019-03-30T00:22:07.037Z,11.05
2019-03-30T00:24:39.713Z,10.98
2019-03-30T00:27:12.288Z,10.91
2019-03-30T00:29:43.779Z,10.84
2019-03-30T00:32:15.280Z,10.82
2019-03-30T00:34:47.173Z,10.75
2019-03-30T00:37:19.759Z,10.66
2019-03-30T00:39:51.256Z,10.70
2019-03-30T00:42:22.766Z,10.63
2019-03-30T00:44:54.359Z,10.64
2019-03-30T00:47:25.871Z,10.50
2019-03-30T00:49:57.409Z,10.47
2019-03-30T00:52:28.911Z,10.29
2019-03-30T00:55:00.457Z,10.02
2019-03-30T00:57:32.116Z,10.00
2019-03-30T01:00:04.093Z,9.95
2019-03-30T01:02:36.012Z,9.96
2019-03-30T01:05:07.611Z,9.96
2019-03-30T01:07:39.109Z,9.96
2019-03-30T01:10:10.711Z,9.96
2019-03-30T01:12:42.202Z,9.95
2019-03-30T01:15:13.785Z,9.78
2019-03-30T01:17:45.341Z,9.75
2019-03-30T01:20:17.917Z,9.62
2019-03-30T01:22:49.558Z,9.60
2019-03-30T01:25:21.158Z,9.52
2019-03-30T01:27:52.652Z,9.42
2019-03-30T01:30:25.138Z,9.29
2019-03-30T01:32:56.666Z,9.22
2019-03-30T01:35:28.210Z,9.15
2019-03-30T01:37:59.910Z,9.11
2019-03-30T01:40:31.440Z,9.02
2019-03-30T01:43:05.823Z,8.91
2019-03-30T01:45:37.315Z,8.95
2019-03-30T01:48:08.810Z,8.94
2019-03-30T01:50:40.391Z,8.91
2019-03-30T01:53:11.908Z,8.86
2019-03-30T01:55:43.406Z,8.81
2019-03-30T01:58:14.923Z,8.74
2019-03-30T02:00:46.619Z,8.68
2019-03-30T02:03:19.198Z,8.69
2019-03-30T02:05:50.773Z,8.58
2019-03-30T02:08:22.360Z,8.48
2019-03-30T02:10:55.316Z,8.36
2019-03-30T02:13:26.893Z,8.23
2019-03-30T02:15:58.520Z,8.15
2019-03-30T02:18:30.015Z,8.26
2019-03-30T02:21:01.538Z,8.23
2019-03-30T02:23:33.031Z,8.22
2019-03-30T02:26:04.599Z,8.10
2019-03-30T02:28:36.164Z,8.03
2019-03-30T02:31:07.681Z,7.99
2019-03-30T02:33:39.198Z,7.94
2019-03-30T02:36:10.762Z,7.87
2019-03-30T02:38:42.352Z,7.80
2019-03-30T02:41:13.850Z,7.86
2019-03-30T02:43:45.376Z,7.82
2019-03-30T02:46:16.887Z,7.80
2019-03-30T02:48:48.382Z,7.81
2019-03-30T02:51:19.909Z,7.86
2019-03-30T02:53:51.414Z,7.70
2019-03-30T02:56:22.913Z,7.41
2019-03-30T02:58:54.413Z,7.47
2019-03-30T03:01:25.907Z,7.53
2019-03-30T03:03:57.433Z,7.53
2019-03-30T03:06:30.149Z,7.55
2019-03-30T03:09:01.678Z,7.58
2019-03-30T03:11:34.353Z,7.53
2019-03-30T03:14:05.941Z,7.47
2019-03-30T03:16:37.477Z,7.49
2019-03-30T03:19:09.057Z,7.37
2019-03-30T03:21:40.541Z,7.28
2019-03-30T03:24:12.105Z,7.19
2019-03-30T03:26:43.694Z,7.07
2019-03-30T03:29:15.310Z,7.09
2019-03-30T03:31:46.872Z,7.05
2019-03-30T03:34:18.474Z,7.10
2019-03-30T03:36:49.985Z,7.10
2019-03-30T03:39:21.491Z,7.02
2019-03-30T03:41:53.074Z,7.04
2019-03-30T03:44:24.571Z,7.02
2019-03-30T03:46:56.165Z,6.97
2019-03-30T03:49:27.758Z,6.85
2019-03-30T03:51:59.448Z,6.85
2019-03-30T03:54:30.960Z,6.73
2019-03-30T03:57:03.873Z,6.71
2019-03-30T03:59:35.383Z,6.68
2019-03-30T04:02:06.900Z,6.74
2019-03-30T04:04:39.801Z,6.54
2019-03-30T04:07:11.301Z,6.51
2019-03-30T04:09:44.975Z,6.44
2019-03-30T04:12:16.445Z,6.46
2019-03-30T04:14:51.479Z,6.55
2019-03-30T04:17:23.059Z,6.51
2019-03-30T04:19:54.724Z,6.65
2019-03-30T04:22:26.423Z,6.61
2019-03-30T04:24:58.033Z,6.62
2019-03-30T04:27:29.584Z,6.46
2019-03-30T04:30:01.131Z,6.49
2019-03-30T04:32:32.634Z,6.52
2019-03-30T04:35:05.799Z,6.48
2019-03-30T04:37:37.393Z,6.35
2019-03-30T04:40:08.923Z,6.49
2019-03-30T04:42:40.430Z,6.49
2019-03-30T04:45:12.030Z,6.51
2019-03-30T04:47:43.611Z,6.47
2019-03-30T04:50:15.203Z,6.56
2019-03-30T04:52:46.796Z,6.65
2019-03-30T04:55:18.293Z,6.73
2019-03-30T04:57:51.712Z,6.76
2019-03-30T05:00:23.344Z,6.70
2019-03-30T05:02:54.861Z,6.72
2019-03-30T05:05:26.354Z,6.80
2019-03-30T05:07:57.986Z,6.86
2019-03-30T05:10:29.567Z,6.94
2019-03-30T05:13:01.070Z,6.97
2019-03-30T05:15:32.579Z,6.92
2019-03-30T05:18:04.157Z,6.95
2019-03-30T05:20:35.727Z,7.09
2019-03-30T05:23:07.254Z,7.17
2019-03-30T05:25:38.934Z,7.23
2019-03-30T05:28:10.448Z,7.44
2019-03-30T05:30:41.961Z,7.54
2019-03-30T05:33:13.479Z,7.60
2019-03-30T05:35:44.995Z,7.69
2019-03-30T05:38:16.485Z,7.85
2019-03-30T05:40:48.070Z,7.93
2019-03-30T05:43:19.654Z,8.02
2019-03-30T05:45:51.237Z,8.03
2019-03-30T05:48:22.882Z,8.25
2019-03-30T05:50:54.395Z,8.58
2019-03-30T05:53:26.083Z,8.93
2019-03-30T05:55:57.941Z,9.22
2019-03-30T05:58:29.779Z,9.62
2019-03-30T06:01:01.376Z,9.97
2019-03-30T06:03:32.956Z,10.31
2019-03-30T06:06:04.583Z,10.61
2019-03-30T06:08:36.151Z,10.88
2019-03-30T06:11:07.676Z,11.14
2019-03-30T06:13:39.288Z,11.22
2019-03-30T06:16:10.804Z,11.46
2019-03-30T06:18:42.328Z,11.56
2019-03-30T06:21:13.928Z,11.74
2019-03-30T06:23:48.514Z,11.87
2019-03-30T06:26:18.673Z,11.97
2019-03-30T06:28:50.173Z,12.08
2019-03-30T06:31:23.315Z,12.45
2019-03-30T06:33:54.827Z,12.64
2019-03-30T06:36:26.338Z,12.75
2019-03-30T06:38:57.849Z,12.86
2019-03-30T06:41:29.430Z,12.89
2019-03-30T06:44:01.007Z,12.99
2019-03-30T06:46:32.537Z,12.95
2019-03-30T06:49:05.394Z,13.09
2019-03-30T06:51:37.005Z,13.24
2019-03-30T06:54:08.527Z,13.30
2019-03-30T06:56:43.281Z,13.47
2019-03-30T06:59:14.829Z,13.70
2019-03-30T07:01:46.412Z,13.88
2019-03-30T07:04:18.014Z,14.09
2019-03-30T07:06:49.603Z,14.25
2019-03-30T07:09:21.286Z,14.28
2019-03-30T07:11:52.788Z,14.40
2019-03-30T07:14:24.334Z,14.56
2019-03-30T07:16:55.928Z,14.59
2019-03-30T07:19:27.763Z,14.54
2019-03-30T07:21:59.285Z,14.61
2019-03-30T07:24:32.845Z,14.57
2019-03-30T07:27:04.018Z,14.54
2019-03-30T07:29:35.626Z,14.44
2019-03-30T07:32:07.132Z,14.46
2019-03-30T07:34:41.589Z,14.49
2019-03-30T07:37:11.883Z,14.56
2019-03-30T07:39:43.383Z,14.57
2019-03-30T07:42:15.529Z,14.59
2019-03-30T07:44:47.182Z,14.53
2019-03-30T07:47:18.781Z,14.38
2019-03-30T07:49:50.285Z,14.38
2019-03-30T07:52:23.516Z,14.47
2019-03-30T07:54:55.984Z,14.65
2019-03-30T07:57:27.665Z,14.80
2019-03-30T07:59:59.196Z,14.90
2019-03-30T08:02:34.244Z,14.84
2019-03-30T08:05:08.641Z,14.78
2019-03-30T08:07:41.847Z,14.78
2019-03-30T08:10:13.369Z,14.76
2019-03-30T08:12:44.967Z,14.98
2019-03-30T08:15:16.554Z,15.04
2019-03-30T08:17:48.152Z,15.07
2019-03-30T08:20:21.260Z,15.07
2019-03-30T08:22:52.833Z,15.18
2019-03-30T08:25:26.133Z,15.30
2019-03-30T08:27:57.790Z,15.42
2019-03-30T08:30:33.344Z,15.40
2019-03-30T08:33:04.945Z,15.31
2019-03-30T08:35:36.540Z,15.47
2019-03-30T08:38:08.041Z,15.60
2019-03-30T08:40:39.638Z,15.67
2019-03-30T08:43:11.234Z,15.68
2019-03-30T08:45:42.845Z,15.72
2019-03-30T08:48:14.431Z,15.82
2019-03-30T08:50:45.937Z,15.85
2019-03-30T08:53:17.519Z,15.77
2019-03-30T08:55:49.232Z,15.97
2019-03-30T08:58:20.753Z,16.10
2019-03-30T09:00:52.332Z,16.29
2019-03-30T09:03:23.946Z,16.48
2019-03-30T09:05:55.444Z,16.64
2019-03-30T09:08:27.003Z,16.75
2019-03-30T09:10:58.519Z,16.59
2019-03-30T09:13:31.628Z,16.77
2019-03-30T09:16:03.140Z,16.73
2019-03-30T09:18:34.725Z,16.61
2019-03-30T09:21:06.336Z,16.58
2019-03-30T09:23:37.856Z,16.54
2019-03-30T09:26:09.438Z,16.56
2019-03-30T09:28:40.935Z,16.53
2019-03-30T09:31:12.441Z,16.45
2019-03-30T09:33:43.961Z,16.59
2019-03-30T09:36:15.490Z,16.73
2019-03-30T09:38:47.012Z,16.67
2019-03-30T09:41:18.530Z,16.81
2019-03-30T09:43:52.093Z,16.59
2019-03-30T09:46:23.281Z,16.88
2019-03-30T09:48:54.797Z,17.10
2019-03-30T09:51:26.431Z,17.16
2019-03-30T09:53:57.967Z,17.15
2019-03-30T09:56:29.488Z,17.08
2019-03-30T09:59:01.143Z,17.09
2019-03-30T10:01:35.468Z,17.13
2019-03-30T10:04:06.998Z,17.08
2019-03-30T10:06:40.146Z,16.96
2019-03-30T10:09:15.477Z,17.05
2019-03-30T10:11:47.002Z,17.12
2019-03-30T10:14:18.528Z,17.23
2019-03-30T10:16:52.037Z,17.24
2019-03-30T10:19:27.803Z,17.21
2019-03-30T10:21:59.490Z,17.24
2019-03-30T10:24:38.346Z,17.26
2019-03-30T10:27:07.402Z,17.18
2019-03-30T10:29:38.992Z,17.24
2019-03-30T10:32:10.518Z,17.23
2019-03-30T10:34:43.643Z,17.29
2019-03-30T10:37:15.140Z,17.41
2019-03-30T10:39:46.726Z,17.62
2019-03-30T10:42:18.240Z,17.72
2019-03-30T10:44:49.743Z,17.65
2019-03-30T10:47:23.025Z,17.70
2019-03-30T10:49:55.675Z,17.61
2019-03-30T10:52:27.269Z,17.60
2019-03-30T10:54:58.769Z,17.59
2019-03-30T10:57:33.477Z,17.64
2019-03-30T11:00:07.767Z,17.77
2019-03-30T11:02:40.423Z,17.82
2019-03-30T11:05:11.969Z,17.87
2019-03-30T11:07:43.496Z,17.84
2019-03-30T11:10:15.021Z,17.81
2019-03-30T11:12:46.530Z,17.90
2019-03-30T11:15:18.049Z,17.94
2019-03-30T11:17:49.555Z,17.95
2019-03-30T11:20:21.147Z,17.94
2019-03-30T11:22:52.668Z,17.84
2019-03-30T11:25:24.163Z,17.83
2019-03-30T11:27:55.763Z,17.95
2019-03-30T11:30:27.305Z,17.98
2019-03-30T11:32:58.819Z,18.12
2019-03-30T11:35:33.126Z,18.11
2019-03-30T11:38:04.694Z,18.15
2019-03-30T11:40:36.281Z,18.10
2019-03-30T11:43:08.853Z,18.11
2019-03-30T11:45:40.424Z,18.20
2019-03-30T11:48:11.930Z,18.24
2019-03-30T11:50:43.533Z,18.21
2019-03-30T11:53:15.115Z,18.17
2019-03-30T11:55:46.675Z,18.04
2019-03-30T11:58:18.184Z,17.95
2019-03-30T12:00:49.729Z,17.82
2019-03-30T12:03:21.231Z,17.94
2019-03-30T12:05:52.749Z,18.00
2019-03-30T12:08:24.337Z,18.14
2019-03-30T12:10:55.946Z,18.29
2019-03-30T12:13:27.474Z,18.18
2019-03-30T12:15:58.993Z,18.12
2019-03-30T12:18:33.616Z,18.15
2019-03-30T12:21:05.132Z,18.18
2019-03-30T12:23:36.660Z,18.22
2019-03-30T12:26:08.156Z,18.19
2019-03-30T12:28:39.710Z,18.26
2019-03-30T12:31:11.223Z,18.23
2019-03-30T12:33:42.748Z,18.31
2019-03-30T12:36:14.276Z,18.33
2019-03-30T12:38:45.937Z,18.33
2019-03-30T12:41:18.432Z,18.27
2019-03-30T12:43:51.500Z,18.26
2019-03-30T12:46:23.010Z,18.29
2019-03-30T12:48:54.531Z,18.24
2019-03-30T12:51:26.137Z,18.21
2019-03-30T12:53:57.642Z,18.26
2019-03-30T12:56:29.165Z,18.32
2019-03-30T12:59:06.450Z,18.41
2019-03-30T13:01:34.034Z,18.38
2019-03-30T13:04:06.230Z,18.42
2019-03-30T13:06:37.840Z,18.39
2019-03-30T13:09:09.438Z,18.39
2019-03-30T13:11:41.058Z,18.44
2019-03-30T13:14:12.563Z,18.44
2019-03-30T13:16:44.083Z,18.46
2019-03-30T13:19:15.607Z,18.47
2019-03-30T13:21:52.737Z,18.49
2019-03-30T13:24:23.764Z,18.58
2019-03-30T13:27:01.876Z,18.58
2019-03-30T13:29:33.459Z,18.61
2019-03-30T13:32:05.043Z,18.50
2019-03-30T13:34:36.612Z,18.43
2019-03-30T13:37:18.699Z,18.42
2019-03-30T13:39:50.296Z,18.47
2019-03-30T13:42:21.953Z,18.49
2019-03-30T13:44:53.489Z,18.61
2019-03-30T13:47:25.028Z,18.63
2019-03-30T13:49:56.560Z,18.63
2019-03-30T13:52:28.154Z,18.66
2019-03-30T13:54:59.655Z,18.64
2019-03-30T13:57:31.254Z,18.64
2019-03-30T14:00:03.424Z,18.63
2019-03-30T14:02:35.004Z,18.62
2019-03-30T14:05:06.803Z,18.57
2019-03-30T14:07:38.299Z,18.54
2019-03-30T14:10:09.974Z,18.52
2019-03-30T14:12:41.566Z,18.47
2019-03-30T14:15:13.106Z,18.47
2019-03-30T14:17:44.698Z,18.37
2019-03-30T14:20:16.237Z,18.41
2019-03-30T14:22:47.842Z,18.48
2019-03-30T14:25:19.372Z,18.48
2019-03-30T14:27:52.060Z,18.46
2019-03-30T14:30:23.652Z,18.45
2019-03-30T14:32:55.231Z,18.59
2019-03-30T14:35:26.763Z,18.55
2019-03-30T14:37:58.294Z,18.45
2019-03-30T14:40:29.781Z,18.50
2019-03-30T14:43:01.390Z,18.49
2019-03-30T14:45:32.934Z,18.46
2019-03-30T14:48:04.523Z,18.34
2019-03-30T14:50:36.023Z,18.33
2019-03-30T14:53:07.621Z,18.39
2019-03-30T14:55:39.810Z,18.39
2019-03-30T14:58:11.422Z,18.24
2019-03-30T15:00:43.056Z,18.16
2019-03-30T15:03:14.556Z,18.10
2019-03-30T15:05:46.148Z,18.16
2019-03-30T15:08:17.648Z,18.14
2019-03-30T15:10:49.187Z,18.19
2019-03-30T15:13:20.698Z,18.13
2019-03-30T15:15:52.220Z,18.05
2019-03-30T15:18:23.746Z,18.05
2019-03-30T15:20:55.401Z,18.07
2019-03-30T15:23:27.270Z,18.04
2019-03-30T15:25:59.045Z,18.05
2019-03-30T15:28:30.581Z,18.05
2019-03-30T15:31:02.185Z,18.01
2019-03-30T15:33:33.714Z,17.96
2019-03-30T15:36:05.451Z,17.98
2019-03-30T15:38:37.061Z,17.99
2019-03-30T15:41:28.812Z,18.02
2019-03-30T15:45:48.889Z,18.01
2019-03-30T15:46:45.114Z,18.03
2019-03-30T15:49:16.710Z,17.88
2019-03-30T15:51:48.331Z,17.85
2019-03-30T15:54:21.856Z,17.81
2019-03-30T15:56:53.077Z,17.72
2019-03-30T15:59:25.314Z,17.77
2019-03-30T16:01:56.842Z,17.75
2019-03-30T16:04:28.441Z,17.70
2019-03-30T16:07:00.069Z,17.64
2019-03-30T16:09:31.673Z,17.63
2019-03-30T16:12:03.201Z,17.50
2019-03-30T16:14:42.844Z,17.49
2019-03-30T16:17:14.978Z,17.48
2019-03-30T16:19:46.594Z,17.40
2019-03-30T16:22:18.126Z,17.39
2019-03-30T16:24:56.386Z,17.40
2019-03-30T16:27:29.407Z,17.38
2019-03-30T16:30:01.066Z,17.39
2019-03-30T16:32:34.617Z,17.34
2019-03-30T16:35:06.582Z,17.27
2019-03-30T16:37:38.107Z,17.17
2019-03-30T16:40:09.661Z,17.13
2019-03-30T16:42:41.255Z,17.10
2019-03-30T16:45:12.782Z,17.03
2019-03-30T16:47:44.310Z,17.04
2019-03-30T16:50:17.442Z,17.03
2019-03-30T16:52:48.967Z,16.96
2019-03-30T16:55:20.493Z,16.94
2019-03-30T16:57:52.045Z,16.92
2019-03-30T17:00:23.649Z,16.83
2019-03-30T17:02:55.315Z,16.84
2019-03-30T17:05:26.837Z,16.78
2019-03-30T17:07:58.338Z,16.75
2019-03-30T17:10:29.859Z,16.68
2019-03-30T17:13:01.531Z,16.63
2019-03-30T17:15:33.103Z,16.56
2019-03-30T17:18:04.675Z,16.44
2019-03-30T17:20:36.268Z,16.39
2019-03-30T17:23:07.781Z,16.36
2019-03-30T17:25:40.373Z,16.33
2019-03-30T17:28:11.876Z,16.25
2019-03-30T17:30:43.473Z,16.16
2019-03-30T17:33:15.152Z,16.15
2019-03-30T17:35:46.720Z,16.10
2019-03-30T17:38:18.308Z,16.04
2019-03-30T17:40:49.995Z,15.99
2019-03-30T17:43:21.573Z,15.90
2019-03-30T17:45:53.175Z,15.82
2019-03-30T17:48:24.789Z,15.73
2019-03-30T17:50:58.071Z,15.70
2019-03-30T17:53:30.579Z,15.65
2019-03-30T17:56:02.250Z,15.56
2019-03-30T17:58:33.880Z,15.53
2019-03-30T18:01:05.525Z,15.47
2019-03-30T18:03:37.097Z,15.34
2019-03-30T18:06:08.628Z,15.29
2019-03-30T18:08:40.223Z,15.26
2019-03-30T18:11:11.748Z,15.17
2019-03-30T18:13:43.274Z,15.10
2019-03-30T18:16:14.790Z,15.05
2019-03-30T18:18:46.314Z,14.94
2019-03-30T18:21:17.907Z,14.85
2019-03-30T18:23:49.432Z,14.80
2019-03-30T18:26:21.010Z,14.72
2019-03-30T18:28:52.612Z,14.66
2019-03-30T18:31:24.143Z,14.59
2019-03-30T18:33:55.678Z,14.47
2019-03-30T18:36:27.177Z,14.36
2019-03-30T18:39:09.424Z,14.20
2019-03-30T18:41:34.211Z,14.10
2019-03-30T18:44:05.862Z,14.03
2019-03-30T18:46:37.403Z,13.95
2019-03-30T18:49:09.192Z,13.90
2019-03-30T18:51:42.116Z,13.77
2019-03-30T18:54:13.659Z,13.66
2019-03-30T18:56:45.210Z,13.72
2019-03-30T18:59:16.803Z,13.68
2019-03-30T19:01:48.396Z,13.63
2019-03-30T19:04:19.944Z,13.59
2019-03-30T19:06:51.683Z,13.48
2019-03-30T19:09:23.389Z,13.39
2019-03-30T19:11:55.049Z,13.41
2019-03-30T19:14:26.735Z,13.32
2019-03-30T19:16:58.273Z,13.26
2019-03-30T19:19:29.804Z,13.23
2019-03-30T19:22:01.345Z,13.12
2019-03-30T19:24:32.976Z,13.06
2019-03-30T19:27:04.915Z,13.07
2019-03-30T19:29:36.702Z,12.96
2019-03-30T19:32:08.364Z,12.86
2019-03-30T19:34:39.936Z,12.80
2019-03-30T19:37:11.558Z,12.57
2019-03-30T19:39:44.256Z,12.36
2019-03-30T19:42:16.049Z,12.42
2019-03-30T19:44:47.595Z,12.31
2019-03-30T19:47:19.150Z,12.38
2019-03-30T19:49:50.668Z,12.21
2019-03-30T19:52:22.222Z,12.27
2019-03-30T19:54:53.763Z,12.16
2019-03-30T19:57:28.546Z,12.13
2019-03-30T20:00:00.364Z,12.03
2019-03-30T20:02:32.027Z,11.97
2019-03-30T20:05:03.866Z,12.01
2019-03-30T20:07:35.416Z,12.01
2019-03-30T20:10:07.138Z,11.98
2019-03-30T20:12:39.022Z,11.99
2019-03-30T20:15:10.555Z,11.95
2019-03-30T20:17:42.097Z,11.93
2019-03-30T20:20:13.660Z,11.94
2019-03-30T20:22:45.223Z,11.88
2019-03-30T20:25:16.835Z,11.77
2019-03-30T20:27:48.387Z,11.61
2019-03-30T20:30:19.928Z,11.59
2019-03-30T20:32:51.456Z,11.54
2019-03-30T20:35:23.260Z,11.41
2019-03-30T20:37:54.813Z,11.33
2019-03-30T20:40:26.409Z,11.28
2019-03-30T20:42:58.004Z,11.23
2019-03-30T20:45:29.622Z,11.18
2019-03-30T20:48:01.176Z,11.15
2019-03-30T20:50:32.718Z,11.12
2019-03-30T20:53:04.330Z,11.09
2019-03-30T20:55:35.959Z,11.02
2019-03-30T20:58:35.302Z,10.84
2019-03-30T21:01:08.586Z,10.89
2019-03-30T21:03:40.137Z,10.85
2019-03-30T21:06:11.696Z,10.81
2019-03-30T21:08:43.243Z,10.71
2019-03-30T21:11:14.792Z,10.66
2019-03-30T21:13:46.433Z,10.58
2019-03-30T21:16:17.953Z,10.52
2019-03-30T21:18:49.574Z,10.50
2019-03-30T21:21:21.188Z,10.48
2019-03-30T21:23:52.744Z,10.42
2019-03-30T21:26:24.372Z,10.36
2019-03-30T21:28:55.974Z,10.33
2019-03-30T21:31:27.523Z,10.35
2019-03-30T21:33:59.209Z,10.24
2019-03-30T21:36:30.760Z,10.28
2019-03-30T21:39:02.421Z,10.26
2019-03-30T21:41:35.339Z,10.25
2019-03-30T21:44:21.119Z,10.10
2019-03-30T21:46:40.318Z,10.10
2019-03-30T21:49:11.862Z,10.07
2019-03-30T21:51:43.490Z,9.96
2019-03-30T21:54:15.198Z,9.91
2019-03-30T21:56:46.845Z,9.83
2019-03-30T21:59:18.383Z,9.79
2019-03-30T22:01:50.069Z,9.85
2019-03-30T22:04:21.601Z,9.79
2019-03-30T22:06:53.153Z,9.68
2019-03-30T22:09:25.790Z,9.61
2019-03-30T22:11:57.346Z,9.68
2019-03-30T22:14:29.859Z,9.65
2019-03-30T22:17:01.398Z,9.59
2019-03-30T22:19:33.005Z,9.52
2019-03-30T22:22:04.545Z,9.44
2019-03-30T22:24:36.977Z,9.45
2019-03-30T22:27:08.492Z,9.52
2019-03-30T22:29:40.038Z,9.53
2019-03-30T22:32:11.582Z,9.47
2019-03-30T22:34:43.141Z,9.45
2019-03-30T22:37:14.754Z,9.34
2019-03-30T22:39:46.307Z,9.30
2019-03-30T22:42:17.861Z,9.27
2019-03-30T22:44:49.424Z,9.24
2019-03-30T22:47:21.019Z,9.18
2019-03-30T22:49:52.691Z,9.17
2019-03-30T22:52:24.228Z,9.17
2019-03-30T22:54:55.884Z,9.08
2019-03-30T22:57:27.425Z,9.08
2019-03-30T22:59:59.004Z,9.02
2019-03-30T23:02:30.712Z,9.02
2019-03-30T23:05:02.330Z,9.02
2019-03-30T23:07:35.121Z,8.98
2019-03-30T23:10:07.678Z,8.97
2019-03-30T23:12:39.239Z,8.97
2019-03-30T23:15:10.828Z,8.97
2019-03-30T23:17:42.452Z,8.85
2019-03-30T23:20:14.067Z,8.84
2019-03-30T23:22:47.959Z,8.83
2019-03-30T23:25:26.342Z,8.81
2019-03-30T23:27:57.616Z,8.82
2019-03-30T23:30:30.929Z,8.76
2019-03-30T23:33:04.012Z,8.72
2019-03-30T23:35:35.613Z,8.74
2019-03-30T23:38:07.228Z,8.71
2019-03-30T23:40:38.838Z,8.69
2019-03-30T23:43:10.452Z,8.62
2019-03-30T23:45:42.001Z,8.65
2019-03-30T23:48:13.606Z,8.70
2019-03-30T23:50:45.147Z,8.68
2019-03-30T23:53:16.690Z,8.65
2019-03-30T23:55:48.245Z,8.61
2019-03-30T23:58:19.787Z,8.50
